Time;durP1;ratioP1;P1;durP2;ratioP2;P2;SDS_P1;SDS_P2;PMS_P1;PMS_P2;Temp;Humidity;BMP_temperature;BMP_pressure;BME280_temperature;BME280_humidity;BME280_pressure;Samples;Min_cycle;Max_cycle;Signal;HPM_P1;HPM_P2
2023/04/29 00:00:01;;;;;;;;;;;10.60;85.20;;;;;;4880923;29;20296;-81
2023/04/29 00:02:27;;;;;;;;;;;10.60;90.20;;;;;;4897647;29;19927;-80
2023/04/29 00:04:53;;;;;;;;;;;10.60;93.70;;;;;;4897387;29;19930;-81
2023/04/29 00:07:18;;;;;;;;;;;10.60;99.90;;;;;;4896950;29;20492;-82
2023/04/29 00:09:44;;;;;;;;;;;10.60;99.90;;;;;;4897744;29;20018;-89
2023/04/29 00:12:10;;;;;;;;;;;10.60;99.90;;;;;;4897495;29;19930;-80
2023/04/29 00:14:36;;;;;;;;;;;10.50;99.90;;;;;;4897015;29;19931;-80
2023/04/29 00:17:01;;;;;;;;;;;10.50;99.90;;;;;;4897057;29;19924;-80
2023/04/29 00:19:28;;;;;;;;;;;10.50;99.90;;;;;;4897134;29;20381;-80
2023/04/29 00:21:53;;;;;;;;;;;10.50;99.90;;;;;;4897019;29;20003;-82
2023/04/29 00:24:19;;;;;;;;;;;10.50;99.90;;;;;;4898208;29;19974;-81
2023/04/29 00:26:45;;;;;;;;;;;10.50;99.90;;;;;;4898113;29;20403;-89
2023/04/29 00:29:11;;;;;;;;;;;12.30;79.10;;;;;;4896756;29;19931;-81
2023/04/29 00:31:36;;;;;;;;;;;10.50;76.80;;;;;;4898322;29;20381;-80
2023/04/29 00:34:02;;;;;;;;;;;10.50;84.80;;;;;;4896246;29;19923;-80
2023/04/29 00:36:28;;;;;;;;;;;10.40;86.20;;;;;;4897692;29;19930;-82
2023/04/29 00:38:53;;;;;;;;;;;10.50;90.50;;;;;;4895198;29;19923;-82
2023/04/29 00:41:19;;;;;;;;;;;10.50;99.90;;;;;;4897715;29;19923;-80
2023/04/29 00:43:45;;;;;;;;;;;10.50;98.50;;;;;;4896459;29;20377;-80
2023/04/29 00:46:11;;;;;;;;;;;10.50;99.90;;;;;;4896969;29;19935;-80
2023/04/29 00:48:36;;;;;;;;;;;10.50;83.40;;;;;;4896511;29;20006;-80
2023/04/29 00:51:04;;;;;;;;;;;10.40;99.90;;;;;;4896700;29;19951;-80
2023/04/29 00:53:30;;;;;;;;;;;10.40;99.90;;;;;;4896460;29;19923;-81
2023/04/29 00:55:56;;;;;;;;;;;10.50;99.90;;;;;;4897168;29;19924;-80
2023/04/29 00:58:22;;;;;;;;;;;10.40;99.90;;;;;;4896092;29;19978;-80
2023/04/29 01:00:48;;;;;;;;;;;10.40;99.90;;;;;;4896904;29;20245;-81
2023/04/29 01:03:14;;;;;;;;;;;10.40;99.90;;;;;;4897150;29;19923;-80
2023/04/29 01:05:40;;;;;;;;;;;10.40;99.90;;;;;;4916351;29;19947;-79
2023/04/29 01:08:12;;;;;;;;;;;10.70;99.90;;;;;;4914863;29;19951;-79
2023/04/29 01:10:40;;;;;;;;;;;10.40;99.90;;;;;;4911882;29;19930;-80
2023/04/29 01:13:08;;;;;;;;;;;10.40;99.90;;;;;;4918820;29;19962;-80
2023/04/29 01:15:42;;;;;;;;;;;10.30;99.90;;;;;;4918114;29;19947;-80
2023/04/29 01:18:19;;;;;;;;;;;10.30;99.90;;;;;;4916976;29;20144;-82
2023/04/29 01:20:45;;;;;;;;;;;10.30;99.90;;;;;;4913049;29;19927;-81
2023/04/29 01:23:11;;;;;;;;;;;10.40;99.90;;;;;;4897069;29;20033;-81
2023/04/29 01:25:37;;;;;;;;;;;10.40;99.90;;;;;;4899698;29;19963;-81
2023/04/29 01:28:12;;;;;;;;;;;10.50;99.90;;;;;;4900348;29;19955;-80
2023/04/29 01:31:13;;;;;;;;;;;10.40;99.90;;;;;;4900622;29;19924;-81
2023/04/29 01:33:57;;;;;;;;;;;10.30;99.90;;;;;;4842332;29;19928;-80
2023/04/29 01:36:35;;;;;;;;;;;10.30;99.90;;;;;;4877087;29;19927;-81
2023/04/29 01:39:01;;;;;;;;;;;10.30;99.90;;;;;;4880183;29;20402;-80
2023/04/29 01:41:33;;;;;;;;;;;10.30;99.90;;;;;;4881689;29;20014;-83
2023/04/29 01:44:01;;;;;;;;;;;10.30;99.90;;;;;;4895494;29;19924;-80
2023/04/29 01:46:27;;;;;;;;;;;10.30;99.90;;;;;;4896258;29;20022;-81
2023/04/29 01:48:53;;;;;;;;;;;10.30;99.90;;;;;;4880991;29;20010;-81
2023/04/29 01:51:19;;;;;;;;;;;10.30;99.90;;;;;;4881446;29;19932;-81
2023/04/29 01:53:44;;;;;;;;;;;10.30;99.90;;;;;;4863763;29;20369;-81
2023/04/29 01:56:10;;;;;;;;;;;10.90;99.90;;;;;;4880909;29;20228;-81
2023/04/29 01:58:35;;;;;;;;;;;10.30;99.90;;;;;;4881280;29;19931;-81
2023/04/29 02:01:01;;;;;;;;;;;10.30;91.70;;;;;;4880902;29;19923;-81
2023/04/29 02:03:26;;;;;;;;;;;10.20;99.90;;;;;;4881160;29;20289;-81
2023/04/29 02:05:52;;;;;;;;;;;10.20;99.90;;;;;;4880560;29;20007;-82
2023/04/29 02:08:17;;;;;;;;;;;10.20;99.90;;;;;;4880422;29;19931;-82
2023/04/29 02:10:56;;;;;;;;;;;10.20;99.90;;;;;;4881037;29;20029;-81
2023/04/29 02:13:22;;;;;;;;;;;10.10;99.90;;;;;;4879830;29;20006;-81
2023/04/29 02:15:48;;;;;;;;;;;10.20;99.90;;;;;;4880226;29;20309;-81
2023/04/29 02:18:13;;;;;;;;;;;10.20;99.90;;;;;;4880454;29;19924;-81
2023/04/29 02:20:39;;;;;;;;;;;10.20;99.90;;;;;;4880089;29;19980;-81
2023/04/29 02:23:05;;;;;;;;;;;10.20;99.90;;;;;;4879421;29;19930;-82
2023/04/29 02:25:30;;;;;;;;;;;10.20;99.90;;;;;;4891886;29;20452;-82
2023/04/29 02:27:56;;;;;;;;;;;10.20;99.90;;;;;;4898763;29;19923;-82
2023/04/29 02:30:21;;;;;;;;;;;10.20;99.90;;;;;;4899234;29;19923;-82
2023/04/29 02:32:47;;;;;;;;;;;10.10;99.90;;;;;;4899376;29;19923;-81
2023/04/29 02:35:13;;;;;;;;;;;10.10;99.90;;;;;;4898040;29;19928;-81
2023/04/29 02:37:38;;;;;;;;;;;10.20;99.90;;;;;;4896844;29;20321;-81
2023/04/29 02:40:04;;;;;;;;;;;10.10;99.90;;;;;;4898843;29;19982;-81
2023/04/29 02:42:30;;;;;;;;;;;10.10;99.90;;;;;;4899252;29;19931;-81
2023/04/29 02:44:56;;;;;;;;;;;10.10;99.90;;;;;;4898407;29;19923;-81
2023/04/29 02:47:22;;;;;;;;;;;10.10;99.90;;;;;;4898464;29;20360;-81
2023/04/29 02:49:49;;;;;;;;;;;10.10;99.90;;;;;;4899201;29;19980;-81
2023/04/29 02:52:15;;;;;;;;;;;10.10;99.90;;;;;;4897510;29;19923;-82
2023/04/29 02:54:41;;;;;;;;;;;10.10;99.90;;;;;;4899144;29;19933;-82
2023/04/29 02:57:07;;;;;;;;;;;10.10;99.90;;;;;;4898469;29;20009;-81
2023/04/29 02:59:33;;;;;;;;;;;10.00;99.50;;;;;;4897900;29;20364;-82
2023/04/29 03:01:58;;;;;;;;;;;10.00;58.50;;;;;;4898098;29;19930;-82
2023/04/29 03:04:24;;;;;;;;;;;9.90;60.60;;;;;;4898788;29;20400;-82
2023/04/29 03:06:50;;;;;;;;;;;9.90;56.40;;;;;;4898084;29;19923;-83
2023/04/29 03:09:15;;;;;;;;;;;9.90;58.70;;;;;;4897124;29;20085;-83
2023/04/29 03:11:41;;;;;;;;;;;9.90;82.10;;;;;;4898703;29;19951;-82
2023/04/29 03:14:06;;;;;;;;;;;9.90;98.50;;;;;;4897840;29;19923;-81
2023/04/29 03:16:32;;;;;;;;;;;9.90;92.60;;;;;;4898409;29;19923;-83
2023/04/29 03:18:58;;;;;;;;;;;9.80;91.10;;;;;;4898133;29;19970;-86
2023/04/29 03:21:25;;;;;;;;;;;9.80;98.50;;;;;;4881965;29;20026;-83
2023/04/29 03:23:50;;;;;;;;;;;9.80;99.90;;;;;;4897480;29;19985;-82
2023/04/29 03:26:16;;;;;;;;;;;9.80;99.70;;;;;;4898061;29;19967;-82
2023/04/29 03:28:41;;;;;;;;;;;9.90;99.90;;;;;;4898180;29;19978;-83
2023/04/29 03:31:07;;;;;;;;;;;9.70;99.90;;;;;;4896961;29;20014;-83
2023/04/29 03:33:32;;;;;;;;;;;9.70;98.90;;;;;;4897112;29;19924;-83
2023/04/29 03:35:58;;;;;;;;;;;9.70;94.40;;;;;;4898176;29;19993;-83
2023/04/29 03:38:24;;;;;;;;;;;9.70;99.90;;;;;;4896859;29;19934;-83
2023/04/29 03:40:50;;;;;;;;;;;9.70;99.90;;;;;;4897388;29;19923;-83
2023/04/29 03:43:16;;;;;;;;;;;9.70;99.90;;;;;;4897746;29;20400;-82
2023/04/29 03:45:42;;;;;;;;;;;9.70;99.90;;;;;;4898251;29;19923;-82
2023/04/29 03:48:08;;;;;;;;;;;9.70;99.90;;;;;;4896395;29;19924;-83
2023/04/29 03:50:35;;;;;;;;;;;9.60;99.90;;;;;;4881511;29;19975;-83
2023/04/29 03:53:01;;;;;;;;;;;10.10;99.90;;;;;;4896934;29;19927;-83
2023/04/29 03:55:27;;;;;;;;;;;9.60;99.90;;;;;;4898265;29;20254;-83
2023/04/29 03:57:52;;;;;;;;;;;9.60;99.90;;;;;;4896422;29;19930;-83
2023/04/29 04:00:18;;;;;;;;;;;9.60;99.90;;;;;;4897710;29;19927;-83
2023/04/29 04:02:44;;;;;;;;;;;9.60;99.90;;;;;;4897668;29;19971;-83
2023/04/29 04:05:09;;;;;;;;;;;9.60;99.90;;;;;;4880937;29;19974;-83
2023/04/29 04:07:35;;;;;;;;;;;9.70;99.90;;;;;;4896830;29;19978;-83
2023/04/29 04:10:00;;;;;;;;;;;9.60;99.90;;;;;;4897976;29;19927;-83
2023/04/29 04:12:26;;;;;;;;;;;9.70;99.90;;;;;;4895712;29;19930;-84
2023/04/29 04:14:52;;;;;;;;;;;9.70;99.90;;;;;;4897703;29;19979;-84
2023/04/29 04:17:18;;;;;;;;;;;9.70;99.90;;;;;;4897318;29;20293;-84
2023/04/29 04:19:44;;;;;;;;;;;9.70;99.90;;;;;;4897463;29;19923;-83
2023/04/29 04:22:10;;;;;;;;;;;9.70;99.90;;;;;;4896415;29;19934;-84
2023/04/29 04:24:36;;;;;;;;;;;9.70;99.90;;;;;;4896549;29;19929;-83
2023/04/29 04:27:01;;;;;;;;;;;9.70;99.90;;;;;;4897562;29;19923;-84
2023/04/29 04:29:27;;;;;;;;;;;9.70;99.90;;;;;;4897565;29;19923;-83
2023/04/29 04:31:52;;;;;;;;;;;9.70;99.90;;;;;;4897315;29;19971;-83
2023/04/29 04:34:18;;;;;;;;;;;9.70;99.90;;;;;;4896983;29;19989;-83
2023/04/29 04:36:44;;;;;;;;;;;9.70;99.90;;;;;;4897178;29;19923;-86
2023/04/29 04:39:10;;;;;;;;;;;9.80;99.90;;;;;;4895278;29;19974;-83
2023/04/29 04:41:35;;;;;;;;;;;9.90;99.90;;;;;;4897531;29;19979;-84
2023/04/29 04:44:01;;;;;;;;;;;9.70;99.90;;;;;;4897381;29;20005;-84
2023/04/29 04:46:27;;;;;;;;;;;9.70;99.90;;;;;;4897134;29;20255;-83
2023/04/29 04:48:53;;;;;;;;;;;9.80;99.90;;;;;;4896396;29;19924;-84
2023/04/29 04:51:18;;;;;;;;;;;9.80;99.90;;;;;;4895639;29;19923;-84
2023/04/29 04:53:44;;;;;;;;;;;9.80;99.90;;;;;;4879519;29;19979;-83
2023/04/29 04:56:09;;;;;;;;;;;9.80;99.90;;;;;;4897479;29;19924;-84
2023/04/29 04:58:35;;;;;;;;;;;9.80;99.90;;;;;;4896039;29;19924;-83
2023/04/29 05:01:01;;;;;;;;;;;9.80;99.90;;;;;;4899569;29;19974;-84
2023/04/29 05:03:26;;;;;;;;;;;9.80;99.90;;;;;;4900457;29;19978;-83
2023/04/29 05:05:56;;;;;;;;;;;9.80;99.90;;;;;;4899961;29;20006;-84
2023/04/29 05:08:21;;;;;;;;;;;9.90;99.90;;;;;;4899510;29;20014;-83
2023/04/29 05:10:47;;;;;;;;;;;10.20;99.90;;;;;;4901069;29;20497;-84
2023/04/29 05:13:13;;;;;;;;;;;9.80;99.90;;;;;;4899155;29;19978;-82
2023/04/29 05:15:38;;;;;;;;;;;9.90;99.90;;;;;;4899901;29;20300;-84
2023/04/29 05:18:04;;;;;;;;;;;9.80;99.90;;;;;;4900496;29;20014;-84
2023/04/29 05:20:30;;;;;;;;;;;9.90;99.90;;;;;;4900029;29;20297;-84
2023/04/29 05:22:55;;;;;;;;;;;9.90;99.90;;;;;;4899781;29;19931;-83
2023/04/29 05:25:21;;;;;;;;;;;9.90;99.90;;;;;;4890324;29;19928;-85
2023/04/29 05:27:46;;;;;;;;;;;10.10;99.90;;;;;;4880656;29;19924;-83
2023/04/29 05:30:12;;;;;;;;;;;10.00;99.90;;;;;;4881654;29;19924;-85
2023/04/29 05:32:38;;;;;;;;;;;10.00;99.90;;;;;;4881042;29;20272;-84
2023/04/29 05:35:03;;;;;;;;;;;10.00;95.80;;;;;;4889797;29;19923;-84
2023/04/29 05:37:30;;;;;;;;;;;10.10;99.90;;;;;;4898826;29;19923;-85
2023/04/29 05:39:56;;;;;;;;;;;10.00;99.90;;;;;;4900572;29;20379;-85
2023/04/29 05:42:22;;;;;;;;;;;10.50;99.90;;;;;;4898931;29;19923;-85
2023/04/29 05:44:48;;;;;;;;;;;10.10;97.90;;;;;;4900470;29;19924;-85
2023/04/29 05:47:14;;;;;;;;;;;10.10;21.50;;;;;;4899870;29;19923;-84
2023/04/29 05:49:39;;;;;;;;;;;10.20;34.80;;;;;;4899160;29;19934;-85
2023/04/29 05:52:05;;;;;;;;;;;10.10;69.60;;;;;;4898796;29;19934;-85
2023/04/29 05:54:31;;;;;;;;;;;10.20;66.60;;;;;;4899447;29;20010;-84
2023/04/29 05:56:57;;;;;;;;;;;10.20;53.70;;;;;;4899106;29;19982;-84
2023/04/29 05:59:22;;;;;;;;;;;10.30;1.00;;;;;;4898550;29;19923;-84
2023/04/29 06:01:48;;;;;;;;;;;10.30;1.00;;;;;;4899838;29;19994;-85
2023/04/29 06:04:13;;;;;;;;;;;10.30;1.00;;;;;;4899748;29;19927;-85
2023/04/29 06:06:39;;;;;;;;;;;10.40;1.00;;;;;;4898720;29;20006;-85
2023/04/29 06:09:04;;;;;;;;;;;10.40;1.00;;;;;;4898795;29;19994;-84
2023/04/29 06:11:30;;;;;;;;;;;10.40;99.90;;;;;;4896937;29;20412;-85
2023/04/29 06:13:56;;;;;;;;;;;10.50;99.90;;;;;;4899910;29;19978;-84
2023/04/29 06:16:21;;;;;;;;;;;10.60;99.90;;;;;;4899416;29;19923;-84
2023/04/29 06:18:47;;;;;;;;;;;10.70;99.90;;;;;;4899307;29;19959;-84
2023/04/29 06:21:13;;;;;;;;;;;10.80;99.90;;;;;;4899598;29;20070;-84
2023/04/29 06:23:39;;;;;;;;;;;11.00;99.90;;;;;;4897165;29;20300;-84
2023/04/29 06:26:05;;;;;;;;;;;11.00;99.90;;;;;;4898567;29;19923;-84
2023/04/29 06:28:31;;;;;;;;;;;11.10;99.90;;;;;;4899125;29;19934;-84
2023/04/29 06:30:56;;;;;;;;;;;11.20;99.90;;;;;;4898463;29;19923;-84
2023/04/29 06:33:22;;;;;;;;;;;11.30;89.20;;;;;;4897463;29;19974;-84
2023/04/29 06:35:47;;;;;;;;;;;11.40;12.50;;;;;;4897842;29;19927;-83
2023/04/29 06:38:13;;;;;;;;;;;11.40;99.90;;;;;;4898441;29;19966;-84
2023/04/29 06:40:38;;;;;;;;;;;11.50;99.90;;;;;;4897949;29;19923;-84
2023/04/29 06:43:04;;;;;;;;;;;11.50;99.90;;;;;;4898919;29;19923;-83
2023/04/29 06:45:30;;;;;;;;;;;11.50;99.90;;;;;;4898984;29;19978;-83
2023/04/29 06:47:56;;;;;;;;;;;11.60;99.90;;;;;;4899013;29;20027;-84
2023/04/29 06:50:21;;;;;;;;;;;11.70;99.90;;;;;;4898528;29;20379;-84
2023/04/29 06:52:48;;;;;;;;;;;11.70;99.90;;;;;;4897944;29;19927;-82
2023/04/29 06:55:13;;;;;;;;;;;11.70;99.90;;;;;;4897911;29;19923;-83
2023/04/29 06:57:39;;;;;;;;;;;11.60;99.90;;;;;;4897623;29;19930;-83
2023/04/29 07:00:05;;;;;;;;;;;11.50;76.60;;;;;;4899001;29;20405;-82
2023/04/29 07:02:30;;;;;;;;;;;11.40;89.60;;;;;;4897477;29;19927;-83
2023/04/29 07:04:56;;;;;;;;;;;11.40;98.50;;;;;;4898794;29;19927;-83
2023/04/29 07:07:22;;;;;;;;;;;11.30;99.90;;;;;;4897979;29;19923;-82
2023/04/29 07:09:50;;;;;;;;;;;11.30;99.90;;;;;;4898370;29;19923;-82
2023/04/29 07:12:16;;;;;;;;;;;11.30;99.90;;;;;;4898600;29;19979;-81
2023/04/29 07:14:41;;;;;;;;;;;11.20;67.60;;;;;;4898053;29;19923;-82
2023/04/29 07:17:07;;;;;;;;;;;11.30;96.30;;;;;;4898257;29;19927;-81
2023/04/29 07:19:33;;;;;;;;;;;11.30;58.40;;;;;;4897330;29;20373;-81
2023/04/29 07:21:58;;;;;;;;;;;11.40;14.70;;;;;;4896309;29;19924;-81
2023/04/29 07:24:25;;;;;;;;;;;12.50;99.90;;;;;;4897284;29;19932;-82
2023/04/29 07:26:50;;;;;;;;;;;13.90;1.00;;;;;;4897443;29;19983;-82
2023/04/29 07:29:16;;;;;;;;;;;15.20;99.90;;;;;;4897693;29;19927;-81
2023/04/29 07:31:42;;;;;;;;;;;16.60;1.00;;;;;;4897754;29;19963;-81
2023/04/29 07:34:07;;;;;;;;;;;17.40;99.90;;;;;;4897987;29;19971;-80
2023/04/29 07:36:33;;;;;;;;;;;18.30;99.90;;;;;;4897976;29;20275;-81
2023/04/29 07:38:58;;;;;;;;;;;19.00;99.90;;;;;;4896181;29;19930;-80
2023/04/29 07:41:24;;;;;;;;;;;19.40;99.90;;;;;;4898445;29;19942;-81
2023/04/29 07:43:50;;;;;;;;;;;20.10;96.50;;;;;;4897677;29;19923;-80
2023/04/29 07:46:17;;;;;;;;;;;21.00;99.90;;;;;;4898034;29;19974;-80
2023/04/29 07:48:43;;;;;;;;;;;21.70;99.90;;;;;;4897607;29;19923;-79
2023/04/29 07:51:13;;;;;;;;;;;21.90;62.80;;;;;;4897162;29;19990;-79
2023/04/29 07:53:39;;;;;;;;;;;22.30;64.90;;;;;;4896916;29;19923;-79
2023/04/29 07:56:08;;;;;;;;;;;23.00;57.90;;;;;;4881533;29;20010;-79
2023/04/29 07:58:34;;;;;;;;;;;23.30;37.60;;;;;;4897500;29;19931;-78
2023/04/29 08:01:10;;;;;;;;;;;23.70;30.10;;;;;;4897903;29;19923;-80
2023/04/29 08:03:36;;;;;;;;;;;23.80;26.50;;;;;;4897514;29;19923;-78
2023/04/29 08:06:02;;;;;;;;;;;24.00;1.00;;;;;;4896419;29;20022;-79
2023/04/29 08:08:28;;;;;;;;;;;23.60;1.00;;;;;;4895937;29;19924;-79
2023/04/29 08:10:54;;;;;;;;;;;23.70;1.00;;;;;;4897355;29;20304;-78
2023/04/29 08:13:20;;;;;;;;;;;23.80;1.00;;;;;;4897635;29;19924;-78
2023/04/29 08:15:49;;;;;;;;;;;23.90;1.00;;;;;;4896015;29;19960;-79
2023/04/29 08:18:15;;;;;;;;;;;24.20;1.00;;;;;;4896423;29;19923;-77
2023/04/29 08:20:40;;;;;;;;;;;24.70;1.00;;;;;;4896599;29;20088;-78
2023/04/29 08:23:06;;;;;;;;;;;25.20;1.00;;;;;;4896533;29;19991;-78
2023/04/29 08:25:32;;;;;;;;;;;25.60;1.00;;;;;;4895947;29;19923;-81
2023/04/29 08:27:57;;;;;;;;;;;26.10;1.00;;;;;;4897214;29;20369;-78
2023/04/29 08:30:23;;;;;;;;;;;25.60;1.00;;;;;;4896499;29;20006;-78
2023/04/29 08:32:49;;;;;;;;;;;25.00;1.00;;;;;;4897024;29;19923;-78
2023/04/29 08:35:15;;;;;;;;;;;24.70;1.00;;;;;;4899341;29;19923;-78
2023/04/29 08:37:40;;;;;;;;;;;24.50;1.00;;;;;;4883440;29;19978;-78
2023/04/29 08:40:07;;;;;;;;;;;24.60;1.00;;;;;;4901665;29;19923;-78
2023/04/29 08:42:33;;;;;;;;;;;24.80;1.00;;;;;;4901263;29;19974;-78
2023/04/29 08:45:00;;;;;;;;;;;24.60;1.00;;;;;;4901204;29;19924;-77
2023/04/29 08:47:29;;;;;;;;;;;23.90;1.00;;;;;;4901298;29;19923;-77
2023/04/29 08:49:55;;;;;;;;;;;23.50;1.00;;;;;;4900835;29;19983;-78
2023/04/29 08:52:21;;;;;;;;;;;23.70;1.00;;;;;;4898716;29;19923;-77
2023/04/29 08:54:46;;;;;;;;;;;24.20;1.00;;;;;;4900191;29;20436;-77
2023/04/29 08:57:12;;;;;;;;;;;24.50;1.00;;;;;;4884274;29;19930;-76
2023/04/29 08:59:37;;;;;;;;;;;24.30;1.00;;;;;;4900889;29;19923;-78
2023/04/29 09:02:05;;;;;;;;;;;24.20;1.00;;;;;;4900866;29;19927;-77
2023/04/29 09:04:43;;;;;;;;;;;24.40;1.00;;;;;;4899986;29;20556;-78
2023/04/29 09:07:09;;;;;;;;;;;25.20;1.00;;;;;;4899238;29;20640;-77
2023/04/29 09:09:36;;;;;;;;;;;25.60;1.00;;;;;;4901153;29;19975;-77
2023/04/29 09:12:01;;;;;;;;;;;25.80;1.00;;;;;;4899228;29;19949;-77
2023/04/29 09:14:27;;;;;;;;;;;26.40;1.00;;;;;;4899930;29;20420;-78
2023/04/29 09:16:53;;;;;;;;;;;26.90;1.00;;;;;;4900389;29;19924;-77
2023/04/29 09:19:32;;;;;;;;;;;27.40;1.00;;;;;;4900685;29;19923;-77
2023/04/29 09:21:58;;;;;;;;;;;27.40;1.00;;;;;;4899530;29;20017;-76
2023/04/29 09:24:24;;;;;;;;;;;27.80;1.00;;;;;;4897839;29;20043;-75
2023/04/29 09:26:50;;;;;;;;;;;28.10;1.00;;;;;;4881505;29;20539;-77
2023/04/29 09:29:17;;;;;;;;;;;28.40;1.00;;;;;;4882034;29;19931;-78
2023/04/29 09:31:43;;;;;;;;;;;29.00;1.00;;;;;;4911754;29;20006;-77
2023/04/29 09:34:10;;;;;;;;;;;29.00;1.00;;;;;;4883505;29;20432;-77
2023/04/29 09:36:46;;;;;;;;;;;28.00;1.00;;;;;;4900480;29;19927;-77
2023/04/29 09:39:13;;;;;;;;;;;26.80;1.00;;;;;;4900166;29;19934;-77
2023/04/29 09:41:58;;;;;;;;;;;26.60;1.00;;;;;;4900277;29;19930;-77
2023/04/29 09:44:31;;;;;;;;;;;26.90;1.00;;;;;;4899414;29;19928;-78
2023/04/29 09:46:57;;;;;;;;;;;26.80;1.00;;;;;;4899524;29;19930;-77
2023/04/29 09:49:26;;;;;;;;;;;27.40;1.00;;;;;;4900285;29;19951;-77
2023/04/29 09:51:53;;;;;;;;;;;27.60;1.00;;;;;;4898698;29;20391;-78
2023/04/29 09:54:19;;;;;;;;;;;28.20;1.00;;;;;;4900321;29;19979;-77
2023/04/29 09:56:48;;;;;;;;;;;28.60;1.00;;;;;;4899797;29;19927;-77
2023/04/29 09:59:15;;;;;;;;;;;28.60;1.00;;;;;;4900230;29;20022;-77
2023/04/29 10:01:41;;;;;;;;;;;28.00;1.00;;;;;;4899168;29;20432;-74
2023/04/29 10:04:07;;;;;;;;;;;27.90;1.00;;;;;;4899934;29;19923;-75
2023/04/29 10:06:33;;;;;;;;;;;28.40;1.00;;;;;;4898776;29;20023;-75
2023/04/29 10:08:59;;;;;;;;;;;28.80;1.00;;;;;;4898639;29;20009;-74
2023/04/29 10:11:25;;;;;;;;;;;28.80;1.00;;;;;;4899859;29;20292;-76
2023/04/29 10:13:51;;;;;;;;;;;28.70;1.00;;;;;;4899405;29;19928;-75
2023/04/29 10:16:24;;;;;;;;;;;29.00;1.00;;;;;;4899947;29;20302;-75
2023/04/29 10:18:54;;;;;;;;;;;29.30;1.00;;;;;;4898424;29;20025;-76
2023/04/29 10:21:23;;;;;;;;;;;29.50;1.00;;;;;;4900004;29;20329;-75
2023/04/29 10:23:49;;;;;;;;;;;29.20;1.00;;;;;;4898465;29;19924;-76
2023/04/29 10:26:15;;;;;;;;;;;29.00;1.00;;;;;;4899637;29;19930;-75
2023/04/29 10:28:41;;;;;;;;;;;29.40;1.00;;;;;;4899514;29;20043;-75
2023/04/29 10:31:07;;;;;;;;;;;29.80;1.00;;;;;;4899168;29;19977;-75
2023/04/29 10:33:34;;;;;;;;;;;29.70;1.00;;;;;;4899383;29;19971;-74
2023/04/29 10:36:00;;;;;;;;;;;29.80;1.00;;;;;;4899022;29;19927;-76
2023/04/29 10:38:35;;;;;;;;;;;30.10;1.00;;;;;;4898421;29;19923;-76
2023/04/29 10:41:03;;;;;;;;;;;29.90;1.00;;;;;;4899096;29;19943;-76
2023/04/29 10:43:28;;;;;;;;;;;30.30;1.00;;;;;;4898855;29;20293;-76
2023/04/29 10:46:13;;;;;;;;;;;30.60;1.00;;;;;;4898692;29;19923;-75
2023/04/29 10:48:38;;;;;;;;;;;30.50;1.00;;;;;;4898972;29;19924;-75
2023/04/29 10:51:04;;;;;;;;;;;30.70;1.00;;;;;;4897620;29;19924;-75
2023/04/29 10:53:30;;;;;;;;;;;30.70;1.00;;;;;;4896765;29;19930;-75
2023/04/29 10:55:57;;;;;;;;;;;30.60;1.00;;;;;;4898775;29;20288;-75
2023/04/29 10:58:42;;;;;;;;;;;30.90;1.00;;;;;;4897966;29;20459;-76
2023/04/29 11:01:10;;;;;;;;;;;30.60;1.00;;;;;;4898629;29;20269;-75
2023/04/29 11:03:48;;;;;;;;;;;30.70;1.00;;;;;;4898704;29;19930;-75
2023/04/29 11:06:13;;;;;;;;;;;30.80;1.00;;;;;;4899060;29;19927;-75
2023/04/29 11:08:39;;;;;;;;;;;30.90;1.00;;;;;;4881291;29;20399;-75
2023/04/29 11:11:05;;;;;;;;;;;30.80;1.00;;;;;;4897330;29;19931;-75
2023/04/29 11:13:33;;;;;;;;;;;30.90;1.00;;;;;;4898330;29;19927;-76
2023/04/29 11:16:05;;;;;;;;;;;30.40;1.00;;;;;;4897484;29;20387;-74
2023/04/29 11:18:31;;;;;;;;;;;30.80;1.00;;;;;;4898560;29;19962;-74
2023/04/29 11:21:05;;;;;;;;;;;30.90;1.00;;;;;;4898338;29;20010;-75
2023/04/29 11:23:35;;;;;;;;;;;30.90;1.00;;;;;;4896545;29;19987;-75
2023/04/29 11:26:00;;;;;;;;;;;31.10;1.00;;;;;;4896907;29;19993;-75
2023/04/29 11:28:27;;;;;;;;;;;31.10;1.00;;;;;;4898354;29;19927;-75
2023/04/29 11:30:53;;;;;;;;;;;31.00;1.00;;;;;;4898020;29;19970;-75
2023/04/29 11:33:18;;;;;;;;;;;31.30;1.00;;;;;;4897293;29;20021;-74
2023/04/29 11:35:44;;;;;;;;;;;31.10;1.00;;;;;;4897322;29;20356;-75
2023/04/29 11:38:10;;;;;;;;;;;30.70;1.00;;;;;;4896972;29;20333;-75
2023/04/29 11:40:40;;;;;;;;;;;30.80;1.00;;;;;;4898498;29;19923;-75
2023/04/29 11:43:06;;;;;;;;;;;30.70;1.00;;;;;;4896599;29;20009;-76
2023/04/29 11:45:34;;;;;;;;;;;31.00;1.00;;;;;;4898334;29;20022;-75
2023/04/29 11:48:00;;;;;;;;;;;30.30;1.00;;;;;;4896751;29;19928;-75
2023/04/29 11:50:26;;;;;;;;;;;30.30;1.00;;;;;;4898136;29;20361;-75
2023/04/29 11:52:52;;;;;;;;;;;30.20;99.90;;;;;;4896463;29;19938;-75
2023/04/29 11:55:18;;;;;;;;;;;30.20;1.00;;;;;;4898095;29;19931;-75
2023/04/29 11:57:44;;;;;;;;;;;30.40;1.00;;;;;;4897899;29;20317;-74
2023/04/29 12:00:11;;;;;;;;;;;30.10;99.90;;;;;;4897666;29;19931;-74
2023/04/29 12:02:37;;;;;;;;;;;29.70;1.00;;;;;;4897616;29;19986;-74
2023/04/29 12:05:05;;;;;;;;;;;30.10;99.90;;;;;;4896283;29;20376;-74
2023/04/29 12:07:30;;;;;;;;;;;30.00;99.90;;;;;;4897032;29;19923;-74
2023/04/29 12:09:56;;;;;;;;;;;30.10;99.90;;;;;;4897152;29;19927;-74
2023/04/29 12:12:22;;;;;;;;;;;29.50;99.90;;;;;;4897405;29;19930;-73
2023/04/29 12:14:48;;;;;;;;;;;28.30;1.00;;;;;;4896749;29;19930;-74
2023/04/29 12:17:13;;;;;;;;;;;27.00;1.00;;;;;;4897101;29;19923;-74
2023/04/29 12:19:40;;;;;;;;;;;25.80;1.00;;;;;;4897874;29;20383;-76
2023/04/29 12:22:05;;;;;;;;;;;24.60;1.00;;;;;;4895487;29;19928;-73
2023/04/29 12:24:35;;;;;;;;;;;23.60;1.00;;;;;;4897613;29;19927;-74
2023/04/29 12:27:01;;;;;;;;;;;22.60;1.00;;;;;;4897180;29;20309;-74
2023/04/29 12:29:27;;;;;;;;;;;21.70;1.00;;;;;;4897569;29;19923;-73
2023/04/29 12:31:52;;;;;;;;;;;21.20;1.00;;;;;;4896735;29;19931;-74
2023/04/29 12:34:25;;;;;;;;;;;20.70;1.00;;;;;;4896271;29;20354;-73
2023/04/29 12:36:53;;;;;;;;;;;20.30;1.00;;;;;;4896537;29;19935;-74
2023/04/29 12:39:19;;;;;;;;;;;20.00;1.00;;;;;;4897633;29;19979;-73
2023/04/29 12:41:45;;;;;;;;;;;19.60;1.00;;;;;;4897442;29;19967;-76
2023/04/29 12:44:10;;;;;;;;;;;19.20;1.00;;;;;;4897168;29;19924;-73
2023/04/29 12:46:40;;;;;;;;;;;19.00;1.00;;;;;;4896327;29;19987;-74
2023/04/29 12:49:06;;;;;;;;;;;18.80;1.00;;;;;;4896899;29;19923;-73
2023/04/29 12:51:32;;;;;;;;;;;18.60;1.00;;;;;;4897397;29;19927;-73
2023/04/29 12:53:59;;;;;;;;;;;18.40;1.00;;;;;;4895906;29;19927;-73
2023/04/29 12:56:25;;;;;;;;;;;18.10;1.00;;;;;;4897360;29;19962;-74
2023/04/29 12:58:50;;;;;;;;;;;18.00;1.00;;;;;;4897122;29;19977;-73
2023/04/29 13:01:16;;;;;;;;;;;17.80;1.00;;;;;;4896101;29;19924;-73
2023/04/29 13:03:42;;;;;;;;;;;17.70;1.00;;;;;;4896166;29;19927;-73
2023/04/29 13:06:08;;;;;;;;;;;17.70;1.00;;;;;;4896725;29;19978;-73
2023/04/29 13:08:33;;;;;;;;;;;17.60;1.00;;;;;;4896185;29;19931;-73
2023/04/29 13:10:59;;;;;;;;;;;17.60;1.00;;;;;;4896768;29;19930;-73
2023/04/29 13:13:26;;;;;;;;;;;17.40;1.00;;;;;;4896155;29;20399;-73
2023/04/29 13:15:51;;;;;;;;;;;17.30;1.00;;;;;;4896382;29;19934;-73
2023/04/29 13:18:17;;;;;;;;;;;17.20;1.00;;;;;;4896654;29;20300;-73
2023/04/29 13:20:43;;;;;;;;;;;17.00;1.00;;;;;;4898391;29;19923;-73
2023/04/29 13:23:10;;;;;;;;;;;16.90;1.00;;;;;;4899489;29;19931;-73
2023/04/29 13:25:36;;;;;;;;;;;16.80;1.00;;;;;;4887761;29;20357;-73
2023/04/29 13:28:04;;;;;;;;;;;16.80;1.00;;;;;;4881276;29;19931;-73
2023/04/29 13:30:29;;;;;;;;;;;16.70;1.00;;;;;;4880661;29;19924;-74
2023/04/29 13:32:55;;;;;;;;;;;16.70;1.00;;;;;;4881401;29;19979;-77
2023/04/29 13:35:21;;;;;;;;;;;16.60;1.00;;;;;;4892860;29;19927;-73
2023/04/29 13:37:47;;;;;;;;;;;16.70;1.00;;;;;;4899360;29;19970;-73
2023/04/29 13:40:13;;;;;;;;;;;16.60;1.00;;;;;;4900211;29;20420;-73
2023/04/29 13:42:38;;;;;;;;;;;16.50;1.00;;;;;;4883788;29;19923;-73
2023/04/29 13:45:04;;;;;;;;;;;16.50;1.00;;;;;;4900256;29;19930;-74
2023/04/29 13:47:29;;;;;;;;;;;16.50;1.00;;;;;;4900208;29;19927;-74
2023/04/29 13:49:55;;;;;;;;;;;16.40;1.00;;;;;;4898849;29;20286;-73
2023/04/29 13:52:21;;;;;;;;;;;16.50;1.00;;;;;;4898964;29;19923;-74
2023/04/29 13:54:47;;;;;;;;;;;16.50;1.00;;;;;;4900434;29;19930;-73
2023/04/29 13:57:12;;;;;;;;;;;16.40;1.00;;;;;;4899469;29;19930;-73
2023/04/29 13:59:38;;;;;;;;;;;16.40;1.00;;;;;;4899923;29;19924;-73
2023/04/29 14:02:04;;;;;;;;;;;16.40;1.00;;;;;;4897988;29;19931;-74
2023/04/29 14:04:29;;;;;;;;;;;16.30;1.00;;;;;;4899907;29;19930;-74
2023/04/29 14:06:56;;;;;;;;;;;16.30;1.00;;;;;;4899006;29;19930;-73
2023/04/29 14:09:22;;;;;;;;;;;16.30;1.00;;;;;;4898791;29;19927;-73
2023/04/29 14:11:48;;;;;;;;;;;16.20;1.00;;;;;;4899673;29;20095;-76
2023/04/29 14:14:13;;;;;;;;;;;16.20;1.00;;;;;;4898306;29;20066;-74
2023/04/29 14:16:39;;;;;;;;;;;16.20;1.00;;;;;;4899791;29;19987;-73
2023/04/29 14:19:06;;;;;;;;;;;16.10;1.00;;;;;;4899242;29;19923;-74